Nearby METAR Reports

 

CYYJ - Victoria Intl Ar, British Columbia, Canada
Distance from station: N 6km
Updated: 19/08/2019 11:00
Mostly cloudy
Mostly cloudy
 Wind from ESE
Wind: ESE 13 km/h
Temperature: 21°C
Dew Point: 10°C
Humidity: 50%
Barometer: 1015.6 hPa
Clouds: Mostly cloudy
Visibility: 48 km
Cloud details: Few Clouds 762 m
Mostly cloudy 1402 m
2019/08/19 18:00 CYYJ 191800Z 11007KT 30SM FEW025 BKN046 21/10 A2999 RMK CU1SC5 CU TR SLP157 DENSITY ALT 700FT
CWKH - Malahat (autob), British Columbia, Canada
Distance from station: WSW 10km
Updated: 19/08/2019 11:00

 
Temperature: 18°C
2019/08/19 18:00 CWKH 191800Z AUTO 18/ RMK AO1 SLP151 T0183 52015
 
CWPF - Esquimalt Metoc, British Columbia, Canada
Distance from station: S 18km
Updated: 19/08/2019 11:45

 Wind from S
Wind: S 20 km/h
Temperature: 15°C
Dew Point: 11°C
Humidity: 77%
2019/08/19 18:45 CWPF 191845Z AUTO 17011KT 15/11 RMK AO1 SLP157 T01490106 51010
CWYJ - Victoria Univ, British Columbia, Canada
Distance from station: SSE 18km
Updated: 19/08/2019 11:00

 Wind from SSW
Wind: SSW 9 km/h
Temperature: 21°C
Dew Point: 10°C
Humidity: 50%
2019/08/19 18:00 CWYJ 191800Z AUTO 21005KT 21/10 RMK AO1 SLP160 T02070102 51014
 
CYWH - Victoria Harbour, British Columbia, Canada
Distance from station: S 20km
Updated: 19/08/2019 11:00
Mostly cloudy
Mostly cloudy
 Wind from SSW
Wind: SSW 19 km/h
Temperature: 17°C
Dew Point: 11°C
Humidity: 68%
Barometer: 1016.3 hPa
Clouds: Mostly cloudy
Visibility: 24 km
Cloud details: Mostly cloudy 1219 m
Mostly cloudy 7620 m
2019/08/19 18:00 CYWH 191800Z 20010KT 15SM BKN040 BKN250 17/11 A3001 RMK SC6CI1 SLP162 DENSITY ALT 200FT
CWLM - Victoria (autob), British Columbia, Canada
Distance from station: SSE 21km
Updated: 19/08/2019 11:00

 Wind from WSW
Wind: WSW 24 km/h, Gust: 33 km/h
Temperature: 18°C
Dew Point: 11°C
Humidity: 64%
2019/08/19 18:00 CWLM 191800Z AUTO 24013G18KT 18/11 RMK AO1 PK WND 24019/1733 SLP160 T01810113 51013
 
KFHR - Friday Harbor, Washington, USA
Distance from station: ESE 30km
Updated: 19/08/2019 10:53
Overcast
Overcast
 Wind from SSW
Wind: SSW 13 km/h
Temperature: 18°C
Dew Point: 12°C
Humidity: 68%
Barometer: 1016.6 hPa
Clouds: Overcast
Visibility: 16 km
Cloud details: Overcast 1219 m
2019/08/19 17:53 KFHR 191753Z AUTO 21007KT 10SM OVC040 18/12 A3002 RMK AO2 SLP167 T01830122 10183 20122 53018
CWQK - Race Rocks Autob, British Columbia, Canada
Distance from station: SSW 34km
Updated: 19/08/2019 11:00

 Wind from W
Wind: W 17 km/h
Temperature: 14°C
Dew Point: 12°C
Humidity: 88%
2019/08/19 18:00 CWQK 191800Z AUTO 27009KT 14/12 RMK AO1 SLP165 T01370115 51015
 
CWEZ - Saturna Isl (map, British Columbia, Canada
Distance from station: NE 35km
Updated: 19/08/2019 11:00

 
Temperature: 18°C
Dew Point: 12°C
Humidity: 68%
2019/08/19 18:00 CWEZ 191800Z AUTO 18/12 RMK AO1 SLP158 T01770124 51018
KORS - Eastsound/Orcas, Washington, USA
Distance from station: ENE 39km
Updated: 19/08/2019 11:35
Overcast
Overcast
 Wind from S
Wind: S 15 km/h
Temperature: 20°C
Dew Point: 13°C
Humidity: 64%
Barometer: 1016.3 hPa
Clouds: Overcast
Visibility: 16 km
Cloud details: Overcast 1311 m
2019/08/19 18:35 KORS 191835Z AUTO 19008KT 10SM OVC043 20/13 A3001 RMK AO2
 
CWSP - Sheringham Autob, British Columbia, Canada
Distance from station: WSW 43km
Updated: 19/08/2019 11:00

 Wind from WNW
Wind: WNW 15 km/h
Temperature: 14°C
2019/08/19 18:00 CWSP 191800Z AUTO 29008KT 14/ RMK AO1 SLP165 T0144 51012